Santa Fe, New Mexico
Current Conditions -  °F | °C
As of 2:53 PM on Monday 22 Dec 2014 (Local Time) from KSAF Reporting Station
Clear Clear  
Wind Chill: 50°   Ceiling: Unl
Heat Index: 50°   Visibility: 10mi
Dew Point: 30°   Wind: 24mph
Humidity: 46%   Direction: 280°W
Pressure: 29.63"   Gusts: 38mph
Location:  35.69°N, 105.93°W
Report Text: KSAF 222153Z 28021G33KT 10SM CLR 10/M01 A2963 RMK AO2 PK WND 28033/2150 RAB00E18 SLP985 P0000 T01001011
Loading
Personal Weather Stations






























Interactive Weather Map New forecast layout! Learn more

10-Day Weather Forecast

Advertisements
Track Severe Weather on mobile